sensor_id;sensor_type;location;lat;lon;timestamp;P1;durP1;ratioP1;P2;durP2;ratioP2
9940;SDS011;5009;50.656;7.188;2022-09-30T00:01:17;4.80;;;4.23;;
9940;SDS011;5009;50.656;7.188;2022-09-30T00:03:43;5.10;;;4.57;;
9940;SDS011;5009;50.656;7.188;2022-09-30T00:06:09;4.90;;;4.27;;
9940;SDS011;5009;50.656;7.188;2022-09-30T00:08:35;5.27;;;4.87;;
9940;SDS011;5009;50.656;7.188;2022-09-30T00:11:06;5.30;;;4.80;;
9940;SDS011;5009;50.656;7.188;2022-09-30T00:13:42;5.17;;;4.77;;
9940;SDS011;5009;50.656;7.188;2022-09-30T00:16:09;6.17;;;4.30;;
9940;SDS011;5009;50.656;7.188;2022-09-30T00:18:35;4.93;;;4.43;;
9940;SDS011;5009;50.656;7.188;2022-09-30T00:21:02;4.97;;;4.57;;
9940;SDS011;5009;50.656;7.188;2022-09-30T00:23:28;5.97;;;5.00;;
9940;SDS011;5009;50.656;7.188;2022-09-30T00:26:00;5.37;;;4.87;;
9940;SDS011;5009;50.656;7.188;2022-09-30T00:28:28;10.53;;;4.93;;
9940;SDS011;5009;50.656;7.188;2022-09-30T00:30:57;6.40;;;4.90;;
9940;SDS011;5009;50.656;7.188;2022-09-30T00:33:24;5.47;;;4.97;;
9940;SDS011;5009;50.656;7.188;2022-09-30T00:35:49;6.17;;;5.03;;
9940;SDS011;5009;50.656;7.188;2022-09-30T00:38:15;5.27;;;4.77;;
9940;SDS011;5009;50.656;7.188;2022-09-30T00:40:41;7.47;;;5.70;;
9940;SDS011;5009;50.656;7.188;2022-09-30T00:43:11;7.07;;;5.10;;
9940;SDS011;5009;50.656;7.188;2022-09-30T00:45:52;6.93;;;5.70;;
9940;SDS011;5009;50.656;7.188;2022-09-30T00:48:22;8.17;;;6.30;;
9940;SDS011;5009;50.656;7.188;2022-09-30T00:50:59;6.43;;;5.83;;
9940;SDS011;5009;50.656;7.188;2022-09-30T00:53:27;7.17;;;6.30;;
9940;SDS011;5009;50.656;7.188;2022-09-30T00:56:00;8.20;;;7.40;;
9940;SDS011;5009;50.656;7.188;2022-09-30T00:58:30;11.57;;;8.40;;
9940;SDS011;5009;50.656;7.188;2022-09-30T01:01:05;9.67;;;8.70;;
9940;SDS011;5009;50.656;7.188;2022-09-30T01:03:32;11.93;;;9.47;;
9940;SDS011;5009;50.656;7.188;2022-09-30T01:06:03;12.33;;;9.40;;
9940;SDS011;5009;50.656;7.188;2022-09-30T01:08:29;13.40;;;10.00;;
9940;SDS011;5009;50.656;7.188;2022-09-30T01:10:57;10.87;;;9.07;;
9940;SDS011;5009;50.656;7.188;2022-09-30T01:13:23;11.67;;;9.87;;
9940;SDS011;5009;50.656;7.188;2022-09-30T01:18:38;15.20;;;10.20;;
9940;SDS011;5009;50.656;7.188;2022-09-30T01:26:52;13.93;;;10.47;;
9940;SDS011;5009;50.656;7.188;2022-09-30T01:32:48;13.37;;;9.73;;
9940;SDS011;5009;50.656;7.188;2022-09-30T01:38:12;13.53;;;9.00;;
9940;SDS011;5009;50.656;7.188;2022-09-30T01:41:03;13.43;;;9.57;;
9940;SDS011;5009;50.656;7.188;2022-09-30T01:46:18;33.60;;;10.20;;
9940;SDS011;5009;50.656;7.188;2022-09-30T01:51:41;13.87;;;9.30;;
9940;SDS011;5009;50.656;7.188;2022-09-30T01:54:17;10.23;;;9.23;;
9940;SDS011;5009;50.656;7.188;2022-09-30T01:56:53;17.50;;;9.27;;
9940;SDS011;5009;50.656;7.188;2022-09-30T01:59:29;21.87;;;10.63;;
9940;SDS011;5009;50.656;7.188;2022-09-30T02:02:05;13.20;;;10.03;;
9940;SDS011;5009;50.656;7.188;2022-09-30T02:04:47;13.77;;;9.30;;
9940;SDS011;5009;50.656;7.188;2022-09-30T02:07:32;31.47;;;9.83;;
9940;SDS011;5009;50.656;7.188;2022-09-30T02:12:37;28.27;;;10.20;;
9940;SDS011;5009;50.656;7.188;2022-09-30T02:15:14;73.67;;;11.97;;
9940;SDS011;5009;50.656;7.188;2022-09-30T02:17:48;22.87;;;9.47;;
9940;SDS011;5009;50.656;7.188;2022-09-30T02:20:18;82.93;;;13.37;;
9940;SDS011;5009;50.656;7.188;2022-09-30T02:23:01;58.70;;;10.90;;
9940;SDS011;5009;50.656;7.188;2022-09-30T02:25:35;30.90;;;10.10;;
9940;SDS011;5009;50.656;7.188;2022-09-30T02:28:09;22.53;;;8.90;;
9940;SDS011;5009;50.656;7.188;2022-09-30T02:30:41;12.43;;;8.50;;
9940;SDS011;5009;50.656;7.188;2022-09-30T02:33:12;15.53;;;9.33;;
9940;SDS011;5009;50.656;7.188;2022-09-30T02:35:46;11.67;;;8.33;;
9940;SDS011;5009;50.656;7.188;2022-09-30T02:38:31;10.60;;;8.27;;
9940;SDS011;5009;50.656;7.188;2022-09-30T02:41:01;24.70;;;9.37;;
9940;SDS011;5009;50.656;7.188;2022-09-30T02:43:32;21.43;;;9.47;;
9940;SDS011;5009;50.656;7.188;2022-09-30T02:46:07;29.90;;;9.57;;
9940;SDS011;5009;50.656;7.188;2022-09-30T02:56:55;12.93;;;8.27;;
9940;SDS011;5009;50.656;7.188;2022-09-30T02:59:23;9.80;;;7.87;;
9940;SDS011;5009;50.656;7.188;2022-09-30T03:01:50;58.07;;;9.73;;
9940;SDS011;5009;50.656;7.188;2022-09-30T03:04:20;52.53;;;12.20;;
9940;SDS011;5009;50.656;7.188;2022-09-30T03:06:49;43.60;;;11.07;;
9940;SDS011;5009;50.656;7.188;2022-09-30T03:09:15;26.20;;;9.60;;
9940;SDS011;5009;50.656;7.188;2022-09-30T03:11:41;74.80;;;14.27;;
9940;SDS011;5009;50.656;7.188;2022-09-30T03:14:17;12.93;;;8.70;;
9940;SDS011;5009;50.656;7.188;2022-09-30T03:19:51;11.27;;;8.27;;
9940;SDS011;5009;50.656;7.188;2022-09-30T03:22:39;18.93;;;8.13;;
9940;SDS011;5009;50.656;7.188;2022-09-30T03:28:42;16.00;;;8.93;;
9940;SDS011;5009;50.656;7.188;2022-09-30T03:33:52;15.73;;;9.03;;
9940;SDS011;5009;50.656;7.188;2022-09-30T03:36:30;13.07;;;9.03;;
9940;SDS011;5009;50.656;7.188;2022-09-30T03:39:25;9.77;;;8.63;;
9940;SDS011;5009;50.656;7.188;2022-09-30T03:41:57;13.63;;;9.10;;
9940;SDS011;5009;50.656;7.188;2022-09-30T03:44:40;13.57;;;8.70;;
9940;SDS011;5009;50.656;7.188;2022-09-30T03:47:12;15.57;;;8.33;;
9940;SDS011;5009;50.656;7.188;2022-09-30T03:49:47;10.10;;;7.80;;
9940;SDS011;5009;50.656;7.188;2022-09-30T03:52:17;19.47;;;8.60;;
9940;SDS011;5009;50.656;7.188;2022-09-30T03:54:47;9.47;;;7.83;;
9940;SDS011;5009;50.656;7.188;2022-09-30T03:57:21;9.50;;;7.53;;
9940;SDS011;5009;50.656;7.188;2022-09-30T03:59:47;13.90;;;8.07;;
9940;SDS011;5009;50.656;7.188;2022-09-30T04:02:14;8.00;;;7.03;;
9940;SDS011;5009;50.656;7.188;2022-09-30T04:04:39;24.07;;;8.57;;
9940;SDS011;5009;50.656;7.188;2022-09-30T04:07:08;18.43;;;9.13;;
9940;SDS011;5009;50.656;7.188;2022-09-30T04:09:34;12.43;;;8.27;;
9940;SDS011;5009;50.656;7.188;2022-09-30T04:12:00;11.20;;;7.97;;
9940;SDS011;5009;50.656;7.188;2022-09-30T04:14:26;14.60;;;8.73;;
9940;SDS011;5009;50.656;7.188;2022-09-30T04:16:51;9.23;;;8.00;;
9940;SDS011;5009;50.656;7.188;2022-09-30T04:19:17;11.63;;;8.97;;
9940;SDS011;5009;50.656;7.188;2022-09-30T04:21:42;25.07;;;9.67;;
9940;SDS011;5009;50.656;7.188;2022-09-30T04:24:08;18.77;;;10.43;;
9940;SDS011;5009;50.656;7.188;2022-09-30T04:26:34;13.73;;;8.97;;
9940;SDS011;5009;50.656;7.188;2022-09-30T04:28:59;14.60;;;9.83;;
9940;SDS011;5009;50.656;7.188;2022-09-30T04:31:25;19.93;;;8.93;;
9940;SDS011;5009;50.656;7.188;2022-09-30T04:33:50;11.80;;;10.00;;
9940;SDS011;5009;50.656;7.188;2022-09-30T04:36:16;11.37;;;9.00;;
9940;SDS011;5009;50.656;7.188;2022-09-30T04:38:41;14.40;;;9.50;;
9940;SDS011;5009;50.656;7.188;2022-09-30T04:41:08;11.37;;;8.97;;
9940;SDS011;5009;50.656;7.188;2022-09-30T04:43:40;11.87;;;8.70;;
9940;SDS011;5009;50.656;7.188;2022-09-30T04:46:09;12.43;;;9.13;;
9940;SDS011;5009;50.656;7.188;2022-09-30T04:48:34;10.97;;;8.50;;
9940;SDS011;5009;50.656;7.188;2022-09-30T04:51:00;17.07;;;9.63;;
9940;SDS011;5009;50.656;7.188;2022-09-30T04:53:25;10.77;;;8.40;;
9940;SDS011;5009;50.656;7.188;2022-09-30T04:55:56;13.93;;;9.73;;
9940;SDS011;5009;50.656;7.188;2022-09-30T04:58:26;11.23;;;8.87;;
9940;SDS011;5009;50.656;7.188;2022-09-30T05:01:09;11.80;;;9.97;;
9940;SDS011;5009;50.656;7.188;2022-09-30T05:03:37;11.37;;;9.47;;
9940;SDS011;5009;50.656;7.188;2022-09-30T05:06:03;14.57;;;10.23;;
9940;SDS011;5009;50.656;7.188;2022-09-30T05:08:30;12.83;;;10.30;;
9940;SDS011;5009;50.656;7.188;2022-09-30T05:11:00;16.23;;;10.50;;
9940;SDS011;5009;50.656;7.188;2022-09-30T05:13:33;27.90;;;12.30;;
9940;SDS011;5009;50.656;7.188;2022-09-30T05:16:01;12.70;;;11.10;;
9940;SDS011;5009;50.656;7.188;2022-09-30T05:18:26;13.67;;;10.93;;
9940;SDS011;5009;50.656;7.188;2022-09-30T05:20:53;13.03;;;11.00;;
9940;SDS011;5009;50.656;7.188;2022-09-30T05:23:21;14.30;;;11.73;;
9940;SDS011;5009;50.656;7.188;2022-09-30T05:25:48;25.13;;;11.90;;
9940;SDS011;5009;50.656;7.188;2022-09-30T05:28:14;15.10;;;12.60;;
9940;SDS011;5009;50.656;7.188;2022-09-30T05:30:39;14.33;;;11.17;;
9940;SDS011;5009;50.656;7.188;2022-09-30T05:33:09;14.83;;;11.03;;
9940;SDS011;5009;50.656;7.188;2022-09-30T05:35:37;15.30;;;11.90;;
9940;SDS011;5009;50.656;7.188;2022-09-30T05:38:04;19.53;;;12.93;;
9940;SDS011;5009;50.656;7.188;2022-09-30T05:40:30;14.90;;;12.40;;
9940;SDS011;5009;50.656;7.188;2022-09-30T05:42:56;15.23;;;12.90;;
9940;SDS011;5009;50.656;7.188;2022-09-30T05:45:23;14.37;;;12.27;;
9940;SDS011;5009;50.656;7.188;2022-09-30T05:47:52;13.97;;;11.77;;
9940;SDS011;5009;50.656;7.188;2022-09-30T05:50:18;15.13;;;11.70;;
9940;SDS011;5009;50.656;7.188;2022-09-30T05:52:44;17.53;;;10.47;;
9940;SDS011;5009;50.656;7.188;2022-09-30T05:55:10;13.70;;;10.80;;
9940;SDS011;5009;50.656;7.188;2022-09-30T05:57:36;13.40;;;10.13;;
9940;SDS011;5009;50.656;7.188;2022-09-30T06:00:02;12.67;;;10.47;;
9940;SDS011;5009;50.656;7.188;2022-09-30T06:02:28;14.90;;;11.53;;
9940;SDS011;5009;50.656;7.188;2022-09-30T06:04:54;14.00;;;11.97;;
9940;SDS011;5009;50.656;7.188;2022-09-30T06:07:19;15.10;;;11.57;;
9940;SDS011;5009;50.656;7.188;2022-09-30T06:09:45;15.33;;;10.77;;
9940;SDS011;5009;50.656;7.188;2022-09-30T06:12:11;15.77;;;11.70;;
9940;SDS011;5009;50.656;7.188;2022-09-30T06:14:36;13.80;;;11.13;;
9940;SDS011;5009;50.656;7.188;2022-09-30T06:17:02;15.27;;;11.77;;
9940;SDS011;5009;50.656;7.188;2022-09-30T06:19:30;15.40;;;11.70;;
9940;SDS011;5009;50.656;7.188;2022-09-30T06:21:56;14.77;;;12.27;;
9940;SDS011;5009;50.656;7.188;2022-09-30T06:24:22;18.37;;;13.20;;
9940;SDS011;5009;50.656;7.188;2022-09-30T06:26:48;17.13;;;14.17;;
9940;SDS011;5009;50.656;7.188;2022-09-30T06:29:13;16.40;;;13.83;;
9940;SDS011;5009;50.656;7.188;2022-09-30T06:31:39;16.63;;;13.87;;
9940;SDS011;5009;50.656;7.188;2022-09-30T06:34:05;17.97;;;14.17;;
9940;SDS011;5009;50.656;7.188;2022-09-30T06:36:31;16.30;;;14.10;;
9940;SDS011;5009;50.656;7.188;2022-09-30T06:38:59;27.50;;;15.17;;
9940;SDS011;5009;50.656;7.188;2022-09-30T06:41:25;16.63;;;14.77;;
9940;SDS011;5009;50.656;7.188;2022-09-30T06:43:51;17.47;;;15.33;;
9940;SDS011;5009;50.656;7.188;2022-09-30T06:46:17;17.60;;;15.63;;
9940;SDS011;5009;50.656;7.188;2022-09-30T06:48:42;18.43;;;16.10;;
9940;SDS011;5009;50.656;7.188;2022-09-30T06:51:08;17.27;;;15.47;;
9940;SDS011;5009;50.656;7.188;2022-09-30T06:53:37;16.97;;;15.17;;
9940;SDS011;5009;50.656;7.188;2022-09-30T06:56:04;17.77;;;16.00;;
9940;SDS011;5009;50.656;7.188;2022-09-30T06:58:30;17.20;;;15.40;;
9940;SDS011;5009;50.656;7.188;2022-09-30T07:01:00;16.33;;;14.70;;
9940;SDS011;5009;50.656;7.188;2022-09-30T07:03:29;15.50;;;13.90;;
9940;SDS011;5009;50.656;7.188;2022-09-30T07:05:58;15.70;;;14.00;;
9940;SDS011;5009;50.656;7.188;2022-09-30T07:08:25;15.33;;;13.73;;
9940;SDS011;5009;50.656;7.188;2022-09-30T07:10:59;17.50;;;15.80;;
9940;SDS011;5009;50.656;7.188;2022-09-30T07:13:26;16.40;;;14.67;;
9940;SDS011;5009;50.656;7.188;2022-09-30T07:15:52;18.90;;;15.43;;
9940;SDS011;5009;50.656;7.188;2022-09-30T07:18:20;18.60;;;15.63;;
9940;SDS011;5009;50.656;7.188;2022-09-30T07:20:50;18.20;;;16.30;;
9940;SDS011;5009;50.656;7.188;2022-09-30T07:23:16;19.30;;;15.80;;
9940;SDS011;5009;50.656;7.188;2022-09-30T07:25:49;18.00;;;15.80;;
9940;SDS011;5009;50.656;7.188;2022-09-30T07:28:15;19.00;;;16.50;;
9940;SDS011;5009;50.656;7.188;2022-09-30T07:30:41;17.07;;;15.27;;
9940;SDS011;5009;50.656;7.188;2022-09-30T07:33:07;19.60;;;15.37;;
9940;SDS011;5009;50.656;7.188;2022-09-30T07:35:34;17.00;;;15.23;;
9940;SDS011;5009;50.656;7.188;2022-09-30T07:38:01;17.07;;;15.27;;
9940;SDS011;5009;50.656;7.188;2022-09-30T07:40:27;18.37;;;15.00;;
9940;SDS011;5009;50.656;7.188;2022-09-30T07:42:55;17.93;;;16.00;;
9940;SDS011;5009;50.656;7.188;2022-09-30T07:46:12;18.10;;;15.80;;
9940;SDS011;5009;50.656;7.188;2022-09-30T07:48:44;19.53;;;15.60;;
9940;SDS011;5009;50.656;7.188;2022-09-30T07:51:14;17.03;;;15.13;;
9940;SDS011;5009;50.656;7.188;2022-09-30T07:53:46;20.10;;;15.63;;
9940;SDS011;5009;50.656;7.188;2022-09-30T07:56:13;17.87;;;14.67;;
9940;SDS011;5009;50.656;7.188;2022-09-30T07:58:39;17.13;;;15.33;;
9940;SDS011;5009;50.656;7.188;2022-09-30T08:01:05;16.87;;;15.17;;
9940;SDS011;5009;50.656;7.188;2022-09-30T08:03:32;16.40;;;14.70;;
9940;SDS011;5009;50.656;7.188;2022-09-30T08:06:03;15.10;;;13.60;;
9940;SDS011;5009;50.656;7.188;2022-09-30T08:08:30;15.27;;;13.77;;
9940;SDS011;5009;50.656;7.188;2022-09-30T08:10:59;15.03;;;13.53;;
9940;SDS011;5009;50.656;7.188;2022-09-30T08:13:25;13.40;;;12.10;;
9940;SDS011;5009;50.656;7.188;2022-09-30T08:15:51;13.93;;;12.57;;
9940;SDS011;5009;50.656;7.188;2022-09-30T08:18:16;13.67;;;12.27;;
9940;SDS011;5009;50.656;7.188;2022-09-30T08:20:42;13.50;;;12.20;;
9940;SDS011;5009;50.656;7.188;2022-09-30T08:23:07;13.57;;;12.20;;
9940;SDS011;5009;50.656;7.188;2022-09-30T08:25:33;13.93;;;12.63;;
9940;SDS011;5009;50.656;7.188;2022-09-30T08:27:59;13.23;;;11.97;;
9940;SDS011;5009;50.656;7.188;2022-09-30T08:30:25;12.67;;;11.47;;
9940;SDS011;5009;50.656;7.188;2022-09-30T08:32:51;11.97;;;10.87;;
9940;SDS011;5009;50.656;7.188;2022-09-30T08:35:16;14.80;;;11.73;;
9940;SDS011;5009;50.656;7.188;2022-09-30T08:37:42;12.57;;;11.27;;
9940;SDS011;5009;50.656;7.188;2022-09-30T08:40:29;13.13;;;10.80;;
9940;SDS011;5009;50.656;7.188;2022-09-30T08:43:05;11.80;;;10.70;;
9940;SDS011;5009;50.656;7.188;2022-09-30T08:51:14;9.70;;;8.40;;
9940;SDS011;5009;50.656;7.188;2022-09-30T08:53:54;9.60;;;8.70;;
9940;SDS011;5009;50.656;7.188;2022-09-30T08:56:25;10.10;;;9.10;;
9940;SDS011;5009;50.656;7.188;2022-09-30T08:58:55;10.37;;;9.37;;
9940;SDS011;5009;50.656;7.188;2022-09-30T09:01:54;10.37;;;8.63;;
9940;SDS011;5009;50.656;7.188;2022-09-30T09:04:26;10.23;;;9.07;;
9940;SDS011;5009;50.656;7.188;2022-09-30T09:06:57;10.13;;;8.97;;
9940;SDS011;5009;50.656;7.188;2022-09-30T09:20:53;7.83;;;7.03;;
9940;SDS011;5009;50.656;7.188;2022-09-30T09:23:24;8.13;;;7.33;;
9940;SDS011;5009;50.656;7.188;2022-09-30T09:25:51;9.17;;;7.33;;
9940;SDS011;5009;50.656;7.188;2022-09-30T09:31:04;8.03;;;7.23;;
9940;SDS011;5009;50.656;7.188;2022-09-30T09:33:34;7.63;;;6.43;;
9940;SDS011;5009;50.656;7.188;2022-09-30T09:44:55;6.53;;;5.97;;
9940;SDS011;5009;50.656;7.188;2022-09-30T09:47:26;6.60;;;5.70;;
9940;SDS011;5009;50.656;7.188;2022-09-30T09:49:52;7.13;;;5.60;;
9940;SDS011;5009;50.656;7.188;2022-09-30T09:55:12;7.43;;;5.23;;
9940;SDS011;5009;50.656;7.188;2022-09-30T09:57:40;6.27;;;5.03;;
9940;SDS011;5009;50.656;7.188;2022-09-30T10:00:07;5.90;;;4.57;;
9940;SDS011;5009;50.656;7.188;2022-09-30T10:03:01;6.17;;;4.40;;
9940;SDS011;5009;50.656;7.188;2022-09-30T10:05:31;6.57;;;4.60;;
9940;SDS011;5009;50.656;7.188;2022-09-30T10:08:19;4.83;;;4.37;;
9940;SDS011;5009;50.656;7.188;2022-09-30T10:10:48;5.70;;;4.80;;
9940;SDS011;5009;50.656;7.188;2022-09-30T10:13:22;4.60;;;4.13;;
9940;SDS011;5009;50.656;7.188;2022-09-30T10:15:50;7.50;;;4.30;;
9940;SDS011;5009;50.656;7.188;2022-09-30T10:18:25;5.67;;;4.20;;
9940;SDS011;5009;50.656;7.188;2022-09-30T10:21:18;5.77;;;4.20;;
9940;SDS011;5009;50.656;7.188;2022-09-30T10:23:49;5.60;;;3.93;;
9940;SDS011;5009;50.656;7.188;2022-09-30T10:26:21;4.03;;;3.47;;
9940;SDS011;5009;50.656;7.188;2022-09-30T10:28:50;5.30;;;4.00;;
9940;SDS011;5009;50.656;7.188;2022-09-30T10:31:58;6.87;;;4.10;;
9940;SDS011;5009;50.656;7.188;2022-09-30T10:36:58;6.03;;;3.70;;
9940;SDS011;5009;50.656;7.188;2022-09-30T10:42:14;4.00;;;3.60;;
9940;SDS011;5009;50.656;7.188;2022-09-30T10:44:47;4.20;;;3.80;;
9940;SDS011;5009;50.656;7.188;2022-09-30T10:47:21;3.77;;;3.40;;
9940;SDS011;5009;50.656;7.188;2022-09-30T10:49:55;3.50;;;3.20;;
9940;SDS011;5009;50.656;7.188;2022-09-30T10:52:31;3.60;;;3.30;;
9940;SDS011;5009;50.656;7.188;2022-09-30T10:57:44;2.97;;;2.67;;
9940;SDS011;5009;50.656;7.188;2022-09-30T11:00:21;2.77;;;2.17;;
9940;SDS011;5009;50.656;7.188;2022-09-30T11:03:05;4.30;;;2.87;;
9940;SDS011;5009;50.656;7.188;2022-09-30T11:05:44;3.67;;;2.77;;
9940;SDS011;5009;50.656;7.188;2022-09-30T11:13:40;3.93;;;2.50;;
9940;SDS011;5009;50.656;7.188;2022-09-30T11:21:52;2.97;;;2.37;;
9940;SDS011;5009;50.656;7.188;2022-09-30T11:24:40;3.47;;;2.40;;
9940;SDS011;5009;50.656;7.188;2022-09-30T11:34:55;4.77;;;2.47;;
9940;SDS011;5009;50.656;7.188;2022-09-30T11:40:37;3.03;;;1.87;;
9940;SDS011;5009;50.656;7.188;2022-09-30T11:46:19;3.13;;;1.67;;
9940;SDS011;5009;50.656;7.188;2022-09-30T11:55:05;2.93;;;1.90;;
9940;SDS011;5009;50.656;7.188;2022-09-30T12:00:30;1.70;;;1.60;;
9940;SDS011;5009;50.656;7.188;2022-09-30T12:03:03;1.93;;;1.47;;
9940;SDS011;5009;50.656;7.188;2022-09-30T12:05:38;2.13;;;1.70;;
9940;SDS011;5009;50.656;7.188;2022-09-30T12:08:23;1.73;;;1.63;;
9940;SDS011;5009;50.656;7.188;2022-09-30T12:10:59;1.53;;;1.43;;
9940;SDS011;5009;50.656;7.188;2022-09-30T12:13:36;2.37;;;1.63;;
9940;SDS011;5009;50.656;7.188;2022-09-30T12:16:14;1.93;;;1.70;;
9940;SDS011;5009;50.656;7.188;2022-09-30T12:19:31;3.30;;;1.77;;
9940;SDS011;5009;50.656;7.188;2022-09-30T12:21:44;3.73;;;2.20;;
9940;SDS011;5009;50.656;7.188;2022-09-30T12:24:18;5.60;;;2.33;;
9940;SDS011;5009;50.656;7.188;2022-09-30T12:26:47;1.70;;;1.60;;
9940;SDS011;5009;50.656;7.188;2022-09-30T12:29:24;1.83;;;1.52;;
9940;SDS011;5009;50.656;7.188;2022-09-30T12:43:53;2.47;;;1.88;;
9940;SDS011;5009;50.656;7.188;2022-09-30T12:49:29;3.37;;;2.00;;
9940;SDS011;5009;50.656;7.188;2022-09-30T12:51:58;5.18;;;1.95;;
9940;SDS011;5009;50.656;7.188;2022-09-30T12:54:33;2.03;;;1.75;;
9940;SDS011;5009;50.656;7.188;2022-09-30T12:57:03;4.68;;;1.90;;
9940;SDS011;5009;50.656;7.188;2022-09-30T12:59:33;3.17;;;2.47;;
9940;SDS011;5009;50.656;7.188;2022-09-30T13:02:02;6.15;;;2.05;;
9940;SDS011;5009;50.656;7.188;2022-09-30T13:04:34;4.28;;;1.90;;
9940;SDS011;5009;50.656;7.188;2022-09-30T13:09:54;5.13;;;2.00;;
9940;SDS011;5009;50.656;7.188;2022-09-30T13:12:24;1.63;;;1.52;;
9940;SDS011;5009;50.656;7.188;2022-09-30T13:23:47;2.10;;;1.93;;
9940;SDS011;5009;50.656;7.188;2022-09-30T13:26:34;3.97;;;1.70;;
9940;SDS011;5009;50.656;7.188;2022-09-30T13:31:27;3.20;;;1.73;;
9940;SDS011;5009;50.656;7.188;2022-09-30T13:34:32;2.33;;;2.13;;
9940;SDS011;5009;50.656;7.188;2022-09-30T13:37:26;2.03;;;1.80;;
9940;SDS011;5009;50.656;7.188;2022-09-30T13:39:56;2.17;;;1.97;;
9940;SDS011;5009;50.656;7.188;2022-09-30T13:42:24;3.10;;;1.73;;
9940;SDS011;5009;50.656;7.188;2022-09-30T13:45:14;2.90;;;1.80;;
9940;SDS011;5009;50.656;7.188;2022-09-30T13:53:29;2.00;;;1.80;;
9940;SDS011;5009;50.656;7.188;2022-09-30T13:55:56;1.87;;;1.70;;
9940;SDS011;5009;50.656;7.188;2022-09-30T13:58:41;5.40;;;1.73;;
9940;SDS011;5009;50.656;7.188;2022-09-30T14:07:07;2.03;;;1.87;;
9940;SDS011;5009;50.656;7.188;2022-09-30T14:15:45;3.80;;;1.77;;
9940;SDS011;5009;50.656;7.188;2022-09-30T14:18:36;1.90;;;1.50;;
9940;SDS011;5009;50.656;7.188;2022-09-30T14:21:30;1.60;;;1.50;;
9940;SDS011;5009;50.656;7.188;2022-09-30T14:24:24;3.00;;;1.47;;
9940;SDS011;5009;50.656;7.188;2022-09-30T14:32:29;4.40;;;1.50;;
9940;SDS011;5009;50.656;7.188;2022-09-30T14:35:10;1.80;;;1.70;;
9940;SDS011;5009;50.656;7.188;2022-09-30T14:37:58;2.45;;;1.55;;
9940;SDS011;5009;50.656;7.188;2022-09-30T14:40:32;1.37;;;1.20;;
9940;SDS011;5009;50.656;7.188;2022-09-30T14:43:01;2.93;;;1.83;;
9940;SDS011;5009;50.656;7.188;2022-09-30T14:45:33;2.83;;;1.80;;
9940;SDS011;5009;50.656;7.188;2022-09-30T14:48:04;3.78;;;1.60;;
9940;SDS011;5009;50.656;7.188;2022-09-30T14:50:57;2.53;;;1.70;;
9940;SDS011;5009;50.656;7.188;2022-09-30T14:53:40;1.52;;;1.42;;
9940;SDS011;5009;50.656;7.188;2022-09-30T14:56:20;4.90;;;1.90;;
9940;SDS011;5009;50.656;7.188;2022-09-30T14:58:51;3.05;;;1.65;;
9940;SDS011;5009;50.656;7.188;2022-09-30T15:01:18;1.88;;;1.65;;
9940;SDS011;5009;50.656;7.188;2022-09-30T15:03:48;4.85;;;1.90;;
9940;SDS011;5009;50.656;7.188;2022-09-30T15:06:18;2.83;;;1.58;;
9940;SDS011;5009;50.656;7.188;2022-09-30T15:08:45;1.50;;;1.40;;
9940;SDS011;5009;50.656;7.188;2022-09-30T15:11:22;1.63;;;1.40;;
9940;SDS011;5009;50.656;7.188;2022-09-30T15:13:52;3.00;;;1.63;;
9940;SDS011;5009;50.656;7.188;2022-09-30T15:16:53;2.05;;;1.38;;
9940;SDS011;5009;50.656;7.188;2022-09-30T15:19:25;1.98;;;1.50;;
9940;SDS011;5009;50.656;7.188;2022-09-30T15:22:08;2.25;;;1.70;;
9940;SDS011;5009;50.656;7.188;2022-09-30T15:24:35;4.95;;;1.88;;
9940;SDS011;5009;50.656;7.188;2022-09-30T15:27:01;2.33;;;1.55;;
9940;SDS011;5009;50.656;7.188;2022-09-30T15:29:28;3.70;;;1.50;;
9940;SDS011;5009;50.656;7.188;2022-09-30T15:34:26;5.90;;;2.20;;
9940;SDS011;5009;50.656;7.188;2022-09-30T15:37:02;3.20;;;1.58;;
9940;SDS011;5009;50.656;7.188;2022-09-30T15:39:35;3.08;;;1.85;;
9940;SDS011;5009;50.656;7.188;2022-09-30T15:42:43;4.22;;;2.97;;
9940;SDS011;5009;50.656;7.188;2022-09-30T15:48:00;2.55;;;1.90;;
9940;SDS011;5009;50.656;7.188;2022-09-30T15:50:38;1.77;;;1.67;;
9940;SDS011;5009;50.656;7.188;2022-09-30T15:53:04;3.13;;;2.00;;
9940;SDS011;5009;50.656;7.188;2022-09-30T15:55:38;2.40;;;1.98;;
9940;SDS011;5009;50.656;7.188;2022-09-30T16:00:53;4.32;;;1.70;;
9940;SDS011;5009;50.656;7.188;2022-09-30T16:03:33;1.65;;;1.48;;
9940;SDS011;5009;50.656;7.188;2022-09-30T16:08:42;6.95;;;1.92;;
9940;SDS011;5009;50.656;7.188;2022-09-30T16:11:17;3.58;;;1.60;;
9940;SDS011;5009;50.656;7.188;2022-09-30T16:13:47;2.58;;;1.67;;
9940;SDS011;5009;50.656;7.188;2022-09-30T16:16:20;2.50;;;1.52;;
9940;SDS011;5009;50.656;7.188;2022-09-30T16:18:49;1.42;;;1.33;;
9940;SDS011;5009;50.656;7.188;2022-09-30T16:21:26;1.42;;;1.17;;
9940;SDS011;5009;50.656;7.188;2022-09-30T16:26:45;1.20;;;1.10;;
9940;SDS011;5009;50.656;7.188;2022-09-30T16:29:11;2.42;;;1.30;;
9940;SDS011;5009;50.656;7.188;2022-09-30T16:31:37;4.00;;;1.60;;
9940;SDS011;5009;50.656;7.188;2022-09-30T16:34:02;1.48;;;1.35;;
9940;SDS011;5009;50.656;7.188;2022-09-30T16:36:28;1.98;;;1.70;;
9940;SDS011;5009;50.656;7.188;2022-09-30T16:38:55;2.63;;;2.03;;
9940;SDS011;5009;50.656;7.188;2022-09-30T16:41:21;4.13;;;2.07;;
9940;SDS011;5009;50.656;7.188;2022-09-30T16:43:46;2.07;;;1.97;;
9940;SDS011;5009;50.656;7.188;2022-09-30T16:46:13;3.83;;;2.57;;
9940;SDS011;5009;50.656;7.188;2022-09-30T16:48:38;2.20;;;2.00;;
9940;SDS011;5009;50.656;7.188;2022-09-30T16:51:14;2.33;;;2.13;;
9940;SDS011;5009;50.656;7.188;2022-09-30T16:53:40;2.87;;;2.20;;
9940;SDS011;5009;50.656;7.188;2022-09-30T16:56:16;2.33;;;2.10;;
9940;SDS011;5009;50.656;7.188;2022-09-30T16:58:43;2.77;;;1.90;;
9940;SDS011;5009;50.656;7.188;2022-09-30T17:01:20;2.47;;;2.03;;
9940;SDS011;5009;50.656;7.188;2022-09-30T17:03:47;2.50;;;2.30;;
9940;SDS011;5009;50.656;7.188;2022-09-30T17:06:13;2.70;;;2.10;;
9940;SDS011;5009;50.656;7.188;2022-09-30T17:08:41;2.50;;;1.90;;
9940;SDS011;5009;50.656;7.188;2022-09-30T17:11:06;2.10;;;1.93;;
9940;SDS011;5009;50.656;7.188;2022-09-30T17:13:32;4.03;;;2.13;;
9940;SDS011;5009;50.656;7.188;2022-09-30T17:15:57;2.07;;;1.77;;
9940;SDS011;5009;50.656;7.188;2022-09-30T17:18:25;2.60;;;2.40;;
9940;SDS011;5009;50.656;7.188;2022-09-30T17:20:51;6.03;;;2.07;;
9940;SDS011;5009;50.656;7.188;2022-09-30T17:23:21;2.40;;;1.90;;
9940;SDS011;5009;50.656;7.188;2022-09-30T17:25:48;2.30;;;1.90;;
9940;SDS011;5009;50.656;7.188;2022-09-30T17:28:14;2.43;;;1.93;;
9940;SDS011;5009;50.656;7.188;2022-09-30T17:30:40;2.17;;;1.90;;
9940;SDS011;5009;50.656;7.188;2022-09-30T17:33:12;3.73;;;2.20;;
9940;SDS011;5009;50.656;7.188;2022-09-30T17:35:38;2.83;;;1.93;;
9940;SDS011;5009;50.656;7.188;2022-09-30T17:38:07;2.30;;;2.10;;
9940;SDS011;5009;50.656;7.188;2022-09-30T17:40:37;2.67;;;2.13;;
9940;SDS011;5009;50.656;7.188;2022-09-30T17:43:22;4.00;;;2.10;;
9940;SDS011;5009;50.656;7.188;2022-09-30T17:45:47;2.20;;;2.00;;
9940;SDS011;5009;50.656;7.188;2022-09-30T17:48:16;2.10;;;1.90;;
9940;SDS011;5009;50.656;7.188;2022-09-30T17:50:43;1.90;;;1.80;;
9940;SDS011;5009;50.656;7.188;2022-09-30T17:53:11;2.23;;;1.80;;
9940;SDS011;5009;50.656;7.188;2022-09-30T17:55:41;4.50;;;2.40;;
9940;SDS011;5009;50.656;7.188;2022-09-30T17:58:11;5.07;;;2.50;;
9940;SDS011;5009;50.656;7.188;2022-09-30T18:00:37;4.37;;;2.73;;
9940;SDS011;5009;50.656;7.188;2022-09-30T18:03:03;3.10;;;2.37;;
9940;SDS011;5009;50.656;7.188;2022-09-30T18:05:29;4.10;;;2.30;;
9940;SDS011;5009;50.656;7.188;2022-09-30T18:07:56;2.70;;;2.50;;
9940;SDS011;5009;50.656;7.188;2022-09-30T18:10:21;2.60;;;2.37;;
9940;SDS011;5009;50.656;7.188;2022-09-30T18:12:47;4.47;;;2.70;;
9940;SDS011;5009;50.656;7.188;2022-09-30T18:15:16;4.40;;;2.67;;
9940;SDS011;5009;50.656;7.188;2022-09-30T18:17:42;4.97;;;2.40;;
9940;SDS011;5009;50.656;7.188;2022-09-30T18:20:08;3.57;;;2.67;;
9940;SDS011;5009;50.656;7.188;2022-09-30T18:22:34;2.83;;;2.63;;
9940;SDS011;5009;50.656;7.188;2022-09-30T18:25:00;4.27;;;2.30;;
9940;SDS011;5009;50.656;7.188;2022-09-30T18:27:44;4.07;;;2.67;;
9940;SDS011;5009;50.656;7.188;2022-09-30T18:30:11;5.23;;;2.43;;